Time;durP1;ratioP1;P1;durP2;ratioP2;P2;SDS_P1;SDS_P2;PMS_P1;PMS_P2;Temp;Humidity;BMP_temperature;BMP_pressure;BME280_temperature;BME280_humidity;BME280_pressure;Samples;Min_cycle;Max_cycle;Signal;HPM_P1;HPM_P2
2022/04/13 00:01:47;;;;;;;7.88;2.30;;;;;;;;;;5113343;28;20186;-62
2022/04/13 00:04:14;;;;;;;7.63;2.40;;;;;;;;;;5113325;28;20062;-61
2022/04/13 00:06:40;;;;;;;5.20;2.20;;;;;;;;;;5112839;28;20031;-62
2022/04/13 00:09:10;;;;;;;4.80;1.73;;;;;;;;;;5112666;28;20023;-62
2022/04/13 00:11:36;;;;;;;4.80;2.03;;;;;;;;;;5112856;28;20145;-61
2022/04/13 00:14:03;;;;;;;6.40;2.20;;;;;;;;;;5112644;28;20020;-61
2022/04/13 00:16:29;;;;;;;6.53;2.40;;;;;;;;;;5112757;28;20027;-62
2022/04/13 00:18:55;;;;;;;5.53;2.35;;;;;;;;;;5112317;28;20137;-62
2022/04/13 00:21:21;;;;;;;6.32;2.60;;;;;;;;;;5112595;28;20034;-61
2022/04/13 00:23:47;;;;;;;14.88;2.42;;;;;;;;;;5112732;28;20084;-62
2022/04/13 00:26:13;;;;;;;8.70;2.42;;;;;;;;;;5112857;28;20039;-62
2022/04/13 00:28:41;;;;;;;6.85;2.65;;;;;;;;;;5112296;28;20103;-62
2022/04/13 00:31:07;;;;;;;5.55;2.20;;;;;;;;;;5112347;28;20041;-61
2022/04/13 00:33:33;;;;;;;4.88;2.33;;;;;;;;;;5111186;28;20024;-62
2022/04/13 00:36:00;;;;;;;6.32;2.50;;;;;;;;;;5112190;28;20015;-61
2022/04/13 00:38:26;;;;;;;6.55;2.25;;;;;;;;;;5112105;28;20051;-61
2022/04/13 00:40:52;;;;;;;4.38;1.95;;;;;;;;;;5112537;28;20383;-60
2022/04/13 00:43:18;;;;;;;5.93;2.40;;;;;;;;;;5112327;28;20052;-62
2022/04/13 00:45:45;;;;;;;3.90;2.10;;;;;;;;;;5113244;28;20050;-61
2022/04/13 00:48:17;;;;;;;4.82;2.30;;;;;;;;;;5111942;28;20035;-62
2022/04/13 00:50:43;;;;;;;4.88;2.15;;;;;;;;;;5111919;28;20020;-61
2022/04/13 00:53:10;;;;;;;4.72;2.10;;;;;;;;;;5112005;28;20054;-62
2022/04/13 00:55:40;;;;;;;5.22;2.28;;;;;;;;;;5111917;28;20084;-62
2022/04/13 00:58:08;;;;;;;4.90;1.92;;;;;;;;;;5111845;28;20593;-61
2022/04/13 01:00:38;;;;;;;5.03;2.22;;;;;;;;;;5112040;28;20106;-61
2022/04/13 01:03:07;;;;;;;4.97;2.00;;;;;;;;;;5112092;28;20153;-62
2022/04/13 01:05:34;;;;;;;5.80;2.10;;;;;;;;;;5112363;28;20024;-62
2022/04/13 01:08:01;;;;;;;5.00;2.30;;;;;;;;;;5107079;28;20036;-64
2022/04/13 01:10:28;;;;;;;4.38;1.90;;;;;;;;;;5092048;28;20024;-61
2022/04/13 01:12:54;;;;;;;4.38;1.95;;;;;;;;;;5092054;28;20028;-62
2022/04/13 01:15:20;;;;;;;5.93;2.30;;;;;;;;;;5092830;28;20024;-62
2022/04/13 01:17:48;;;;;;;5.25;2.28;;;;;;;;;;5112477;28;20540;-62
2022/04/13 01:20:16;;;;;;;5.40;2.47;;;;;;;;;;5112353;28;20027;-61
2022/04/13 01:22:44;;;;;;;4.13;2.15;;;;;;;;;;5112047;28;20039;-62
2022/04/13 01:25:11;;;;;;;7.00;2.08;;;;;;;;;;5109029;28;20115;-62
2022/04/13 01:27:37;;;;;;;4.32;1.83;;;;;;;;;;5111772;28;20035;-62
2022/04/13 01:30:06;;;;;;;4.40;2.30;;;;;;;;;;5112294;28;20022;-64
2022/04/13 01:32:32;;;;;;;4.82;2.30;;;;;;;;;;5112256;28;20070;-62
2022/04/13 01:34:58;;;;;;;4.63;2.08;;;;;;;;;;5094104;28;20498;-61
2022/04/13 01:37:24;;;;;;;4.25;1.70;;;;;;;;;;5111967;28;20451;-61
2022/04/13 01:39:50;;;;;;;5.32;2.00;;;;;;;;;;5111913;28;20042;-60
2022/04/13 01:42:16;;;;;;;4.22;2.20;;;;;;;;;;5112009;28;20026;-62
2022/04/13 01:44:43;;;;;;;4.57;1.92;;;;;;;;;;5114211;28;20020;-61
2022/04/13 01:47:09;;;;;;;5.05;2.17;;;;;;;;;;5111746;28;20547;-62
2022/04/13 01:49:36;;;;;;;5.00;2.08;;;;;;;;;;5095479;28;20109;-62
2022/04/13 01:52:03;;;;;;;4.93;2.28;;;;;;;;;;5095736;28;20639;-61
2022/04/13 01:54:29;;;;;;;7.05;2.20;;;;;;;;;;5095484;28;20024;-62
2022/04/13 01:56:55;;;;;;;6.72;2.20;;;;;;;;;;5111811;28;20049;-61
2022/04/13 01:59:21;;;;;;;5.82;2.30;;;;;;;;;;5115439;28;20019;-62
2022/04/13 02:01:48;;;;;;;4.95;1.77;;;;;;;;;;5115963;28;20020;-62
2022/04/13 02:04:21;;;;;;;5.63;2.00;;;;;;;;;;5115751;28;20382;-61
2022/04/13 02:06:48;;;;;;;4.60;2.42;;;;;;;;;;5115467;28;20032;-62
2022/04/13 02:09:14;;;;;;;5.97;2.10;;;;;;;;;;5115534;28;20019;-61
2022/04/13 02:11:40;;;;;;;5.35;2.10;;;;;;;;;;5115496;28;20031;-61
2022/04/13 02:14:07;;;;;;;13.55;2.15;;;;;;;;;;5115298;28;20028;-61
2022/04/13 02:16:34;;;;;;;4.90;1.92;;;;;;;;;;5115069;28;20060;-64
2022/04/13 02:19:00;;;;;;;3.90;2.03;;;;;;;;;;5115274;28;20032;-61
2022/04/13 02:21:26;;;;;;;4.90;2.35;;;;;;;;;;5115620;28;20019;-63
2022/04/13 02:23:52;;;;;;;4.28;2.03;;;;;;;;;;5115495;28;20023;-63
2022/04/13 02:26:19;;;;;;;5.55;2.30;;;;;;;;;;5115216;28;20047;-61
2022/04/13 02:28:46;;;;;;;5.57;2.10;;;;;;;;;;5114996;28;20023;-62
2022/04/13 02:31:12;;;;;;;6.00;2.22;;;;;;;;;;5114767;28;20032;-61
2022/04/13 02:33:39;;;;;;;5.28;2.10;;;;;;;;;;5114992;28;20038;-61
2022/04/13 02:36:06;;;;;;;4.07;1.98;;;;;;;;;;5115361;28;20027;-61
2022/04/13 02:38:32;;;;;;;6.10;2.10;;;;;;;;;;5114109;28;20073;-62
2022/04/13 02:40:59;;;;;;;4.53;2.13;;;;;;;;;;5114415;28;20054;-61
2022/04/13 02:43:26;;;;;;;4.38;1.90;;;;;;;;;;5114274;28;20372;-62
2022/04/13 02:45:52;;;;;;;4.68;2.10;;;;;;;;;;5114449;28;20462;-62
2022/04/13 02:48:18;;;;;;;4.18;2.20;;;;;;;;;;5113654;28;20036;-61
2022/04/13 02:50:44;;;;;;;4.38;2.03;;;;;;;;;;5114079;28;20019;-62
2022/04/13 02:53:10;;;;;;;5.55;2.20;;;;;;;;;;5113987;28;20076;-63
2022/04/13 02:55:36;;;;;;;4.10;2.00;;;;;;;;;;5113127;28;20475;-62
2022/04/13 02:58:02;;;;;;;4.40;2.00;;;;;;;;;;5113856;28;20166;-63
2022/04/13 03:00:29;;;;;;;4.50;1.90;;;;;;;;;;5114119;28;20020;-61
2022/04/13 03:02:55;;;;;;;5.32;2.45;;;;;;;;;;5114111;28;20462;-62
2022/04/13 03:05:21;;;;;;;4.65;1.73;;;;;;;;;;5114509;28;20030;-63
2022/04/13 03:07:47;;;;;;;4.75;2.38;;;;;;;;;;5114263;28;20035;-62
2022/04/13 03:10:13;;;;;;;5.07;1.83;;;;;;;;;;5114414;28;20083;-61
2022/04/13 03:12:42;;;;;;;4.88;2.10;;;;;;;;;;5114497;28;20055;-62
2022/04/13 03:15:08;;;;;;;3.92;1.83;;;;;;;;;;5114047;28;20023;-63
2022/04/13 03:17:34;;;;;;;5.68;2.10;;;;;;;;;;5114377;28;20027;-62
2022/04/13 03:20:01;;;;;;;6.15;2.50;;;;;;;;;;5113853;28;20039;-61
2022/04/13 03:22:27;;;;;;;6.05;2.22;;;;;;;;;;5114192;28;20531;-62
2022/04/13 03:24:54;;;;;;;4.47;2.42;;;;;;;;;;5111152;28;20024;-62
2022/04/13 03:27:20;;;;;;;5.55;2.35;;;;;;;;;;5113724;28;20036;-62
2022/04/13 03:29:46;;;;;;;4.35;2.10;;;;;;;;;;5113723;28;20089;-61
2022/04/13 03:32:12;;;;;;;5.55;2.30;;;;;;;;;;5114036;28;20023;-61
2022/04/13 03:34:38;;;;;;;4.38;2.15;;;;;;;;;;5113959;28;20016;-60
2022/04/13 03:37:05;;;;;;;5.90;2.20;;;;;;;;;;5114170;28;20030;-61
2022/04/13 03:39:31;;;;;;;4.95;2.22;;;;;;;;;;5113528;28;20061;-64
2022/04/13 03:41:57;;;;;;;5.03;2.22;;;;;;;;;;5113503;28;20024;-63
2022/04/13 03:44:23;;;;;;;5.10;2.42;;;;;;;;;;5113467;28;20120;-61
2022/04/13 03:46:50;;;;;;;6.50;2.35;;;;;;;;;;5113263;28;20486;-62
2022/04/13 03:49:16;;;;;;;5.85;2.75;;;;;;;;;;5111595;28;20028;-63
2022/04/13 03:51:42;;;;;;;4.70;2.35;;;;;;;;;;5113243;28;20047;-62
2022/04/13 03:54:09;;;;;;;4.60;2.22;;;;;;;;;;5113165;28;20481;-61
2022/04/13 03:56:36;;;;;;;6.13;2.40;;;;;;;;;;5113620;28;20016;-62
2022/04/13 03:59:03;;;;;;;4.53;2.25;;;;;;;;;;5113423;28;20019;-63
2022/04/13 04:01:30;;;;;;;4.32;2.28;;;;;;;;;;5113693;28;20073;-61
2022/04/13 04:03:56;;;;;;;6.05;2.10;;;;;;;;;;5113515;28;20012;-61
2022/04/13 04:06:23;;;;;;;6.43;2.28;;;;;;;;;;5113212;28;20024;-62
2022/04/13 04:08:50;;;;;;;5.45;2.00;;;;;;;;;;5112888;28;20085;-62
2022/04/13 04:11:16;;;;;;;5.43;2.25;;;;;;;;;;5112990;28;20084;-63
2022/04/13 04:13:42;;;;;;;4.75;2.13;;;;;;;;;;5113492;28;20061;-62
2022/04/13 04:16:08;;;;;;;5.60;2.40;;;;;;;;;;5113294;28;20027;-64
2022/04/13 04:18:35;;;;;;;5.82;2.42;;;;;;;;;;5112592;28;20028;-61
2022/04/13 04:21:01;;;;;;;4.75;2.35;;;;;;;;;;5112778;28;20023;-61
2022/04/13 04:23:27;;;;;;;5.20;2.05;;;;;;;;;;5112770;28;20027;-62
2022/04/13 04:25:53;;;;;;;5.25;2.30;;;;;;;;;;5112929;28;20076;-66
2022/04/13 04:28:19;;;;;;;9.57;2.13;;;;;;;;;;5112272;28;20035;-61
2022/04/13 04:30:45;;;;;;;5.32;2.20;;;;;;;;;;5112440;28;20364;-62
2022/04/13 04:33:16;;;;;;;6.05;2.40;;;;;;;;;;5112393;28;20058;-61
2022/04/13 04:35:46;;;;;;;4.45;1.90;;;;;;;;;;5112249;28;20032;-62
2022/04/13 04:38:12;;;;;;;4.18;2.30;;;;;;;;;;5112377;28;20019;-64
2022/04/13 04:40:38;;;;;;;5.40;2.40;;;;;;;;;;5111929;28;20035;-63
2022/04/13 04:43:04;;;;;;;5.85;2.25;;;;;;;;;;5111817;28;20105;-62
2022/04/13 04:45:30;;;;;;;6.38;2.50;;;;;;;;;;5112159;28;20038;-62
2022/04/13 04:48:03;;;;;;;9.30;2.65;;;;;;;;;;5111984;28;20057;-63
2022/04/13 04:50:30;;;;;;;8.27;2.72;;;;;;;;;;5111451;28;20409;-63
2022/04/13 04:52:56;;;;;;;8.77;2.65;;;;;;;;;;5112049;28;20478;-63
2022/04/13 04:55:22;;;;;;;7.63;2.65;;;;;;;;;;5112119;28;20069;-62
2022/04/13 04:57:49;;;;;;;12.15;2.80;;;;;;;;;;5111935;28;20099;-62
2022/04/13 05:00:19;;;;;;;9.85;2.60;;;;;;;;;;5112011;28;20477;-61
2022/04/13 05:02:51;;;;;;;18.38;2.97;;;;;;;;;;5112155;28;20038;-62
2022/04/13 05:05:17;;;;;;;;;;;;;;;;;;5112486;28;20028;-61
2022/04/13 05:07:44;;;;;;;7.35;2.60;;;;;;;;;;5112075;28;19911;-62
2022/04/13 05:10:10;;;;;;;6.75;2.63;;;;;;;;;;5100454;28;20015;-62
2022/04/13 05:12:49;;;;;;;6.22;2.58;;;;;;;;;;5110436;28;20039;-61
2022/04/13 05:15:15;;;;;;;7.32;2.45;;;;;;;;;;5089946;28;20480;-62
2022/04/13 05:17:42;;;;;;;6.82;2.63;;;;;;;;;;5090048;28;20032;-62
2022/04/13 05:20:09;;;;;;;5.65;2.35;;;;;;;;;;5096134;28;20103;-62
2022/04/13 05:22:35;;;;;;;7.25;2.78;;;;;;;;;;5116290;28;20180;-63
2022/04/13 05:25:08;;;;;;;13.07;2.60;;;;;;;;;;5113949;28;20024;-61
2022/04/13 05:27:35;;;;;;;5.22;2.55;;;;;;;;;;5115179;28;20642;-62
2022/04/13 05:30:01;;;;;;;9.02;2.60;;;;;;;;;;5116255;28;20028;-62
2022/04/13 05:32:27;;;;;;;6.30;2.60;;;;;;;;;;5116076;28;20486;-63
2022/04/13 05:35:00;;;;;;;12.02;3.00;;;;;;;;;;5116011;28;20165;-62
2022/04/13 05:37:26;;;;;;;6.15;2.50;;;;;;;;;;5115873;28;20235;-62
2022/04/13 05:39:52;;;;;;;7.75;2.70;;;;;;;;;;5115347;28;20013;-62
2022/04/13 05:42:25;;;;;;;6.65;2.42;;;;;;;;;;5115430;28;20034;-61
2022/04/13 05:44:51;;;;;;;;;;;;;;;;;;5115899;28;20040;-62
2022/04/13 05:47:17;;;;;;;6.45;2.35;;;;;;;;;;5115355;28;19919;-62
2022/04/13 05:49:43;;;;;;;7.93;2.72;;;;;;;;;;5115226;28;20012;-62
2022/04/13 05:52:10;;;;;;;6.05;2.70;;;;;;;;;;5115472;28;20486;-62
2022/04/13 05:54:36;;;;;;;8.52;3.30;;;;;;;;;;5115444;28;20090;-62
2022/04/13 05:57:02;;;;;;;5.07;2.40;;;;;;;;;;5115285;28;20028;-62
2022/04/13 05:59:31;;;;;;;7.07;3.13;;;;;;;;;;5115293;28;20016;-62
2022/04/13 06:01:57;;;;;;;5.65;2.45;;;;;;;;;;5095322;28;20020;-61
2022/04/13 06:04:23;;;;;;;4.90;2.80;;;;;;;;;;5095168;28;20383;-62
2022/04/13 06:06:50;;;;;;;5.43;2.22;;;;;;;;;;5095292;28;20028;-62
2022/04/13 06:09:16;;;;;;;6.35;2.70;;;;;;;;;;5095267;28;20421;-61
2022/04/13 06:11:42;;;;;;;5.32;2.47;;;;;;;;;;5111350;28;20065;-62
2022/04/13 06:14:08;;;;;;;12.75;3.20;;;;;;;;;;5115495;28;20075;-64
2022/04/13 06:16:34;;;;;;;6.78;2.67;;;;;;;;;;5115416;28;20023;-63
2022/04/13 06:19:00;;;;;;;8.02;3.15;;;;;;;;;;5115318;28;20027;-61
2022/04/13 06:21:27;;;;;;;5.97;3.10;;;;;;;;;;5115081;28;20027;-63
2022/04/13 06:23:53;;;;;;;8.20;3.10;;;;;;;;;;5115451;28;20019;-63
2022/04/13 06:26:19;;;;;;;7.32;2.78;;;;;;;;;;5115368;28;20028;-62
2022/04/13 06:28:45;;;;;;;8.27;2.78;;;;;;;;;;5114869;28;20032;-64
2022/04/13 06:31:12;;;;;;;8.32;3.65;;;;;;;;;;5114984;28;20046;-63
2022/04/13 06:33:38;;;;;;;15.38;3.13;;;;;;;;;;5115019;28;20030;-61
2022/04/13 06:36:08;;;;;;;7.28;2.70;;;;;;;;;;5114803;28;20027;-62
2022/04/13 06:38:35;;;;;;;7.47;2.72;;;;;;;;;;5096173;28;20103;-62
2022/04/13 06:41:01;;;;;;;7.47;2.60;;;;;;;;;;5114689;28;20016;-61
2022/04/13 06:43:27;;;;;;;5.72;2.90;;;;;;;;;;5114717;28;20051;-61
2022/04/13 06:45:53;;;;;;;8.15;2.65;;;;;;;;;;5115337;28;20046;-60
2022/04/13 06:48:21;;;;;;;6.45;2.63;;;;;;;;;;5115312;28;20044;-62
2022/04/13 06:50:47;;;;;;;5.93;2.72;;;;;;;;;;5115196;28;20507;-62
2022/04/13 06:53:14;;;;;;;5.30;2.55;;;;;;;;;;5114991;28;20381;-62
2022/04/13 06:55:41;;;;;;;6.03;2.85;;;;;;;;;;5115139;28;20028;-63
2022/04/13 06:58:07;;;;;;;5.25;2.78;;;;;;;;;;5114956;28;20073;-61
2022/04/13 07:00:34;;;;;;;7.28;2.90;;;;;;;;;;5096540;28;21076;-62
2022/04/13 07:03:00;;;;;;;10.80;2.95;;;;;;;;;;5113967;28;20094;-61
2022/04/13 07:05:26;;;;;;;5.40;2.70;;;;;;;;;;5114597;28;20023;-61
2022/04/13 07:07:53;;;;;;;7.53;2.80;;;;;;;;;;5114543;28;20036;-60
2022/04/13 07:10:19;;;;;;;7.20;2.90;;;;;;;;;;5112653;28;20020;-62
2022/04/13 07:12:45;;;;;;;5.80;2.80;;;;;;;;;;5095844;28;20060;-61
2022/04/13 07:15:12;;;;;;;5.47;2.70;;;;;;;;;;5114438;28;20008;-61
2022/04/13 07:17:38;;;;;;;6.85;3.00;;;;;;;;;;5114743;28;20031;-61
2022/04/13 07:20:05;;;;;;;8.82;2.97;;;;;;;;;;5113986;28;20024;-61
2022/04/13 07:22:31;;;;;;;8.20;2.97;;;;;;;;;;5113921;28;20035;-63
2022/04/13 07:24:57;;;;;;;6.78;2.88;;;;;;;;;;5114116;28;20108;-62
2022/04/13 07:27:23;;;;;;;6.45;2.85;;;;;;;;;;5110611;28;20027;-61
2022/04/13 07:29:49;;;;;;;5.55;3.03;;;;;;;;;;5114016;28;20027;-62
2022/04/13 07:32:15;;;;;;;7.65;2.90;;;;;;;;;;5095640;28;20096;-62
2022/04/13 07:34:41;;;;;;;8.55;2.92;;;;;;;;;;5113574;28;20023;-62
2022/04/13 07:37:07;;;;;;;6.28;2.65;;;;;;;;;;5113787;28;20485;-63
2022/04/13 07:39:34;;;;;;;6.65;3.05;;;;;;;;;;5113850;28;20035;-62
2022/04/13 07:42:00;;;;;;;6.93;3.00;;;;;;;;;;5113316;28;20111;-63
2022/04/13 07:44:26;;;;;;;6.07;2.90;;;;;;;;;;5113024;28;20044;-62
2022/04/13 07:46:52;;;;;;;39.83;3.70;;;;;;;;;;5111851;28;20047;-64
2022/04/13 07:49:18;;;;;;;22.17;3.80;;;;;;;;;;5113814;28;20039;-62
2022/04/13 07:51:44;;;;;;;16.98;3.67;;;;;;;;;;5113707;28;20466;-63
2022/04/13 07:54:10;;;;;;;25.38;4.45;;;;;;;;;;5101603;28;20133;-62
2022/04/13 07:56:36;;;;;;;10.63;4.03;;;;;;;;;;5113632;28;20558;-63
2022/04/13 07:59:03;;;;;;;35.15;4.40;;;;;;;;;;5102386;28;20036;-65
2022/04/13 08:01:29;;;;;;;13.32;3.80;;;;;;;;;;5111285;28;20023;-64
2022/04/13 08:03:55;;;;;;;8.45;3.65;;;;;;;;;;5105122;28;20027;-61
2022/04/13 08:06:22;;;;;;;10.82;3.58;;;;;;;;;;5112695;28;20095;-60
2022/04/13 08:08:48;;;;;;;8.25;3.47;;;;;;;;;;5105908;28;20046;-60
2022/04/13 08:11:14;;;;;;;17.17;4.25;;;;;;;;;;5112338;28;20077;-61
2022/04/13 08:13:40;;;;;;;10.10;3.85;;;;;;;;;;5112646;28;20034;-62
2022/04/13 08:16:06;;;;;;;11.55;3.65;;;;;;;;;;5111942;28;20027;-61
2022/04/13 08:18:32;;;;;;;12.27;3.63;;;;;;;;;;5112517;28;20024;-61
2022/04/13 08:20:59;;;;;;;8.52;3.38;;;;;;;;;;5111467;28;20032;-63
2022/04/13 08:23:25;;;;;;;9.25;3.35;;;;;;;;;;5111897;28;20023;-62
2022/04/13 08:25:51;;;;;;;11.73;3.55;;;;;;;;;;5109474;28;20032;-62
2022/04/13 08:28:17;;;;;;;6.55;2.90;;;;;;;;;;5111924;28;20039;-61
2022/04/13 08:30:43;;;;;;;6.43;2.80;;;;;;;;;;5095505;28;20570;-61
2022/04/13 08:33:09;;;;;;;8.82;2.88;;;;;;;;;;5111376;28;20105;-61
2022/04/13 08:35:35;;;;;;;7.28;2.88;;;;;;;;;;5111828;28;20070;-60
2022/04/13 08:38:01;;;;;;;12.10;2.63;;;;;;;;;;5106569;28;20015;-61
2022/04/13 08:40:28;;;;;;;7.10;2.90;;;;;;;;;;5112289;28;20072;-63
2022/04/13 08:43:04;;;;;;;7.10;2.40;;;;;;;;;;5110400;28;20077;-62
2022/04/13 08:45:32;;;;;;;11.63;2.80;;;;;;;;;;5111232;28;20011;-62
2022/04/13 08:47:59;;;;;;;6.15;2.25;;;;;;;;;;5111887;28;20039;-62
2022/04/13 08:50:29;;;;;;;7.25;2.78;;;;;;;;;;5112651;28;20032;-62
2022/04/13 08:53:00;;;;;;;6.20;2.60;;;;;;;;;;5111405;28;20467;-62
2022/04/13 08:55:26;;;;;;;8.75;2.70;;;;;;;;;;5111603;28;20019;-62
2022/04/13 08:58:16;;;;;;;7.53;2.55;;;;;;;;;;5111904;28;20091;-60
2022/04/13 09:00:48;;;;;;;6.35;2.40;;;;;;;;;;5097470;28;20050;-61
2022/04/13 09:03:27;;;;;;;6.65;2.80;;;;;;;;;;5099369;28;20490;-61
2022/04/13 09:05:55;;;;;;;22.95;4.05;;;;;;;;;;5112052;28;20036;-61
2022/04/13 09:08:33;;;;;;;18.80;3.78;;;;;;;;;;5106499;28;20078;-60
2022/04/13 09:11:01;;;;;;;17.40;3.72;;;;;;;;;;5092020;28;20040;-61
2022/04/13 09:13:27;;;;;;;9.90;3.60;;;;;;;;;;5111785;28;20118;-61
2022/04/13 09:15:54;;;;;;;26.15;4.25;;;;;;;;;;5112209;28;20020;-61
2022/04/13 09:18:20;;;;;;;20.75;4.30;;;;;;;;;;5111928;28;20088;-61
2022/04/13 09:20:46;;;;;;;19.23;3.25;;;;;;;;;;5111186;28;20023;-61
2022/04/13 09:23:14;;;;;;;9.60;3.25;;;;;;;;;;5111801;28;20024;-63
2022/04/13 09:25:41;;;;;;;12.18;3.35;;;;;;;;;;5111926;28;20020;-62
2022/04/13 09:28:07;;;;;;;12.82;3.75;;;;;;;;;;5111519;28;20114;-62
2022/04/13 09:30:34;;;;;;;17.83;3.08;;;;;;;;;;5110897;28;20038;-62
2022/04/13 09:33:03;;;;;;;9.38;3.45;;;;;;;;;;5111564;28;20084;-63
2022/04/13 09:35:33;;;;;;;14.15;3.00;;;;;;;;;;5111543;28;20073;-62
2022/04/13 09:38:06;;;;;;;9.63;2.67;;;;;;;;;;5111643;28;20639;-62
2022/04/13 09:40:39;;;;;;;8.70;2.95;;;;;;;;;;5111557;28;20479;-62
2022/04/13 09:43:08;;;;;;;11.25;3.05;;;;;;;;;;5111400;28;20036;-62
2022/04/13 09:45:43;;;;;;;17.00;3.15;;;;;;;;;;5111523;28;20098;-62
2022/04/13 09:48:13;;;;;;;12.75;2.88;;;;;;;;;;5111453;28;20525;-61
2022/04/13 09:50:39;;;;;;;9.20;2.95;;;;;;;;;;5111479;28;20027;-61
2022/04/13 09:53:06;;;;;;;11.73;2.72;;;;;;;;;;5111480;28;20470;-61
2022/04/13 09:56:01;;;;;;;12.30;2.78;;;;;;;;;;5111459;28;20421;-62
2022/04/13 09:58:30;;;;;;;9.40;3.13;;;;;;;;;;5073813;28;20043;-63
2022/04/13 10:01:00;;;;;;;9.55;2.80;;;;;;;;;;5091003;28;20027;-63
2022/04/13 10:03:27;;;;;;;9.98;2.78;;;;;;;;;;5090862;28;20032;-62
2022/04/13 10:05:54;;;;;;;13.40;3.40;;;;;;;;;;5093513;28;20024;-63
2022/04/13 10:08:25;;;;;;;9.02;2.30;;;;;;;;;;5094782;28;20390;-62
2022/04/13 10:10:58;;;;;;;6.50;2.60;;;;;;;;;;5094804;28;20080;-62
2022/04/13 10:13:31;;;;;;;9.20;3.30;;;;;;;;;;5094647;28;20067;-62
2022/04/13 10:15:57;;;;;;;5.50;2.50;;;;;;;;;;5094642;28;20028;-62
2022/04/13 10:18:23;;;;;;;10.38;2.35;;;;;;;;;;5094525;28;20020;-63
2022/04/13 10:20:49;;;;;;;9.43;2.78;;;;;;;;;;5094483;28;20024;-62
2022/04/13 10:23:16;;;;;;;6.70;2.50;;;;;;;;;;5094548;28;20099;-62
2022/04/13 10:25:43;;;;;;;4.88;2.15;;;;;;;;;;5094351;28;20529;-63
2022/04/13 10:28:12;;;;;;;7.88;2.47;;;;;;;;;;5094334;28;20032;-62
2022/04/13 10:30:39;;;;;;;7.85;2.10;;;;;;;;;;5094452;28;20016;-62
2022/04/13 10:33:06;;;;;;;8.90;2.13;;;;;;;;;;5094215;28;20028;-63
2022/04/13 10:35:33;;;;;;;6.18;2.25;;;;;;;;;;5094360;28;20371;-62
2022/04/13 10:38:00;;;;;;;7.28;2.38;;;;;;;;;;5094333;28;20055;-62
2022/04/13 10:40:27;;;;;;;5.78;2.13;;;;;;;;;;5094139;28;20023;-63
2022/04/13 10:42:53;;;;;;;6.95;2.15;;;;;;;;;;5094000;28;20080;-62
2022/04/13 10:45:20;;;;;;;4.30;1.85;;;;;;;;;;5093933;28;20022;-62
2022/04/13 10:48:01;;;;;;;5.50;2.03;;;;;;;;;;5093676;28;20107;-62
2022/04/13 10:50:33;;;;;;;5.75;2.20;;;;;;;;;;5093809;28;20020;-62
2022/04/13 10:53:05;;;;;;;5.95;2.50;;;;;;;;;;5096207;28;20059;-62
2022/04/13 10:55:34;;;;;;;4.13;2.08;;;;;;;;;;5100154;28;20019;-63
2022/04/13 10:58:32;;;;;;;7.93;1.88;;;;;;;;;;5111727;28;20033;-61
2022/04/13 11:01:03;;;;;;;7.80;2.13;;;;;;;;;;5071726;28;20035;-61
2022/04/13 11:03:32;;;;;;;5.07;2.03;;;;;;;;;;5103976;28;20490;-62
2022/04/13 11:05:58;;;;;;;4.63;2.03;;;;;;;;;;5101072;28;20275;-63
2022/04/13 11:08:30;;;;;;;6.80;2.25;;;;;;;;;;5094424;28;20032;-62
2022/04/13 11:10:56;;;;;;;6.25;1.73;;;;;;;;;;5109670;28;20069;-62
2022/04/13 11:13:23;;;;;;;7.65;2.00;;;;;;;;;;5113180;28;20509;-62
2022/04/13 11:15:50;;;;;;;8.50;2.65;;;;;;;;;;5100435;28;20095;-62
2022/04/13 11:18:17;;;;;;;4.50;1.90;;;;;;;;;;5108195;28;20039;-63
2022/04/13 11:20:58;;;;;;;5.07;1.83;;;;;;;;;;5096287;28;20027;-61
2022/04/13 11:23:44;;;;;;;5.82;2.05;;;;;;;;;;5103978;28;20070;-62
2022/04/13 11:26:10;;;;;;;3.60;1.52;;;;;;;;;;5108089;28;20020;-61
2022/04/13 11:28:37;;;;;;;8.93;1.80;;;;;;;;;;5096314;28;20032;-62
2022/04/13 11:31:04;;;;;;;6.07;1.88;;;;;;;;;;5107266;28;20017;-63
2022/04/13 11:33:49;;;;;;;5.22;1.80;;;;;;;;;;5102117;28;20020;-61
2022/04/13 11:36:15;;;;;;;4.05;1.90;;;;;;;;;;5097011;28;20020;-61
2022/04/13 11:38:48;;;;;;;6.40;1.88;;;;;;;;;;5109412;28;20142;-61
2022/04/13 11:41:14;;;;;;;4.38;1.92;;;;;;;;;;5100139;28;20408;-61
2022/04/13 11:43:40;;;;;;;4.72;1.80;;;;;;;;;;5101378;28;20040;-61
2022/04/13 11:46:09;;;;;;;6.95;1.63;;;;;;;;;;5107284;28;20107;-61
2022/04/13 11:48:36;;;;;;;5.75;1.90;;;;;;;;;;5101135;28;20031;-62
2022/04/13 11:51:21;;;;;;;5.30;1.80;;;;;;;;;;5108812;28;20012;-61
2022/04/13 11:53:54;;;;;;;5.00;1.88;;;;;;;;;;5108042;28;20091;-61
2022/04/13 11:56:54;;;;;;;3.13;1.52;;;;;;;;;;5108948;28;20048;-62
2022/04/13 11:59:39;;;;;;;4.28;1.70;;;;;;;;;;5067035;28;20453;-62
2022/04/13 12:02:08;;;;;;;4.03;1.65;;;;;;;;;;5097826;28;20559;-61
2022/04/13 12:04:34;;;;;;;6.63;1.80;;;;;;;;;;5108848;28;20124;-62
2022/04/13 12:07:01;;;;;;;5.30;1.92;;;;;;;;;;5097549;28;20039;-61
2022/04/13 12:09:28;;;;;;;6.78;2.10;;;;;;;;;;5102839;28;20415;-61
2022/04/13 12:11:55;;;;;;;5.43;1.70;;;;;;;;;;5105104;28;20023;-61
2022/04/13 12:14:40;;;;;;;8.30;2.05;;;;;;;;;;5095463;28;20016;-61
2022/04/13 12:17:06;;;;;;;8.40;2.05;;;;;;;;;;5105968;28;20017;-61
2022/04/13 12:19:40;;;;;;;8.70;1.75;;;;;;;;;;5101640;28;20084;-61
2022/04/13 12:22:16;;;;;;;6.38;2.22;;;;;;;;;;5097417;28;20502;-61
2022/04/13 12:25:01;;;;;;;8.32;1.75;;;;;;;;;;5108396;28;20442;-64
2022/04/13 12:27:27;;;;;;;6.13;1.92;;;;;;;;;;5100545;28;20046;-62
2022/04/13 12:30:09;;;;;;;6.68;1.90;;;;;;;;;;5098963;28;20040;-64
2022/04/13 12:32:42;;;;;;;7.80;1.95;;;;;;;;;;5108476;28;20023;-63
2022/04/13 12:35:09;;;;;;;7.03;2.22;;;;;;;;;;5098326;28;20385;-61
2022/04/13 12:37:35;;;;;;;5.47;1.73;;;;;;;;;;5101487;28;20018;-60
2022/04/13 12:40:17;;;;;;;5.97;1.60;;;;;;;;;;5105496;28;20019;-61
2022/04/13 12:42:43;;;;;;;;;;;;;;;;;;5095166;28;20122;-61
2022/04/13 12:45:12;;;;;;;4.85;1.70;;;;;;;;;;5104901;28;19985;-61
2022/04/13 12:47:48;;;;;;;4.50;1.70;;;;;;;;;;5101745;28;20024;-61
2022/04/13 12:50:15;;;;;;;5.35;1.90;;;;;;;;;;5107362;28;20085;-60
2022/04/13 12:52:42;;;;;;;7.68;1.98;;;;;;;;;;5094867;28;20024;-60
2022/04/13 12:55:09;;;;;;;4.13;1.75;;;;;;;;;;5105004;28;20073;-63
2022/04/13 12:57:35;;;;;;;6.93;1.80;;;;;;;;;;5101336;28;20023;-61
2022/04/13 13:00:01;;;;;;;4.10;1.80;;;;;;;;;;5097451;28;20028;-64
2022/04/13 13:02:27;;;;;;;3.78;1.65;;;;;;;;;;5107865;28;20016;-65
2022/04/13 13:04:53;;;;;;;4.72;1.85;;;;;;;;;;5095693;28;20024;-62
2022/04/13 13:07:29;;;;;;;4.93;1.80;;;;;;;;;;5103238;28;20121;-61
2022/04/13 13:09:56;;;;;;;4.57;1.70;;;;;;;;;;5104365;28;20051;-65
2022/04/13 13:12:25;;;;;;;3.25;1.55;;;;;;;;;;5094225;28;20144;-61
2022/04/13 13:14:52;;;;;;;5.10;1.95;;;;;;;;;;5107234;28;20035;-61
2022/04/13 13:17:31;;;;;;;4.03;1.60;;;;;;;;;;5099097;28;20482;-61
2022/04/13 13:20:08;;;;;;;4.97;2.00;;;;;;;;;;5097698;28;20425;-61
2022/04/13 13:22:38;;;;;;;4.00;1.60;;;;;;;;;;5107586;28;20079;-65
2022/04/13 13:25:05;;;;;;;4.15;1.42;;;;;;;;;;5097169;28;20020;-61
2022/04/13 13:27:32;;;;;;;3.40;1.40;;;;;;;;;;5104741;28;20024;-61
2022/04/13 13:30:03;;;;;;;4.43;1.70;;;;;;;;;;5110143;28;20023;-61
2022/04/13 13:32:29;;;;;;;4.18;1.70;;;;;;;;;;5110031;28;20015;-65
2022/04/13 13:34:55;;;;;;;3.42;1.73;;;;;;;;;;5110798;28;20491;-61
2022/04/13 13:37:28;;;;;;;10.05;2.63;;;;;;;;;;5111698;28;20470;-62
2022/04/13 13:39:54;;;;;;;10.77;2.55;;;;;;;;;;5112959;28;20028;-61
2022/04/13 13:42:20;;;;;;;9.43;2.42;;;;;;;;;;5113741;28;20035;-64
2022/04/13 13:44:46;;;;;;;8.38;2.50;;;;;;;;;;5111738;28;20043;-61
2022/04/13 13:47:12;;;;;;;6.65;2.58;;;;;;;;;;5115585;28;20420;-64
2022/04/13 13:49:38;;;;;;;8.55;2.42;;;;;;;;;;5111961;28;20039;-62
2022/04/13 13:52:05;;;;;;;7.90;2.70;;;;;;;;;;5094800;28;20038;-61
2022/04/13 13:54:33;;;;;;;7.30;2.80;;;;;;;;;;5095058;28;20024;-61
2022/04/13 13:57:01;;;;;;;11.07;3.30;;;;;;;;;;5094643;28;20035;-62
2022/04/13 13:59:27;;;;;;;8.20;2.50;;;;;;;;;;5095055;28;20051;-62
2022/04/13 14:01:53;;;;;;;10.18;2.38;;;;;;;;;;5095354;28;20545;-61
2022/04/13 14:04:21;;;;;;;9.77;2.63;;;;;;;;;;5095573;28;20386;-61
2022/04/13 14:06:48;;;;;;;5.28;2.25;;;;;;;;;;5095482;28;20118;-61
2022/04/13 14:09:14;;;;;;;10.50;2.75;;;;;;;;;;5095135;28;20016;-61
2022/04/13 14:11:40;;;;;;;5.32;2.28;;;;;;;;;;5095388;28;20027;-61
2022/04/13 14:14:06;;;;;;;6.25;2.40;;;;;;;;;;5095289;28;20047;-61
2022/04/13 14:16:33;;;;;;;9.55;2.70;;;;;;;;;;5094941;28;20047;-62
2022/04/13 14:18:59;;;;;;;8.25;2.28;;;;;;;;;;5095051;28;20031;-61
2022/04/13 14:21:25;;;;;;;6.65;2.00;;;;;;;;;;5094686;28;20020;-62
2022/04/13 14:23:51;;;;;;;10.50;2.40;;;;;;;;;;5094387;28;20016;-61
2022/04/13 14:26:17;;;;;;;6.43;2.17;;;;;;;;;;5094703;28;20047;-61
2022/04/13 14:28:46;;;;;;;4.65;2.10;;;;;;;;;;5076231;28;20032;-61
2022/04/13 14:31:12;;;;;;;6.55;1.98;;;;;;;;;;5094524;28;20017;-60
2022/04/13 14:33:38;;;;;;;5.47;2.28;;;;;;;;;;5094736;28;20032;-61
2022/04/13 14:36:04;;;;;;;4.72;1.90;;;;;;;;;;5094483;28;20813;-63
2022/04/13 14:38:31;;;;;;;5.50;1.90;;;;;;;;;;5094380;28;20031;-62
2022/04/13 14:40:57;;;;;;;6.38;2.58;;;;;;;;;;5094581;28;20466;-61
2022/04/13 14:43:23;;;;;;;4.85;2.00;;;;;;;;;;5094242;28;20052;-61
2022/04/13 14:45:49;;;;;;;5.80;2.45;;;;;;;;;;5094493;28;20024;-61
2022/04/13 14:48:15;;;;;;;5.47;2.38;;;;;;;;;;5094696;28;20044;-61